Aeroporto :
LOGIN :

Iscrizione | Disclaimer

   EN    FR    IT 

 










Sommario :    VFR   VFR Marginale   IFR   IFR Intensivo   IFR Molto Intensivo
Visibilità : 
Base nubi : 
>= 8 km
>= 3000ft
5 / 8 km
1000 / 3000 ft
1500m / 5 km
500 / 1000 ft
800 / 1500m
200 / 500 ft
< 800m
< 200 ft
Simboli :   Temporali  Nebbia  Neve Forte  Precipitazioni Forti  Vento > 20 kt
SIGMETs :   Varie  Temporali  Ghiacco  Turbolenza  Onda orograficha  Ceneri Vulcaniche






- Altitudine del aeroporto : 0 ft


ENOA - Oseberg A Platform

ULTIMO METAR :
  • 060550Z 15048KT 7000 FEW010 BKN170 09/05 Q1004 W///S6

METARs OBSOLETI :
  • 060520Z 15049KT 7000 FEW010 BKN180 09/05 Q1004 W///S6
  • 060450Z 15049KT 8000 FEW010 BKN210 09/05 Q1004 W///S6
  • 060420Z 16050KT 7000 FEW010 BKN210 09/05 Q1005 W///S5
  • 060350Z 16047KT CAVOK 09/05 Q1005 W///S6
  • 060320Z 15049KT CAVOK 09/05 Q1006 W///S6

TAF ENOA
Valido dal 06 a 03 ore il 07 a 03 ore UTC


0603/0703 16045KT 9999 FEW020
TEMPO 0610/0614 4000 RA BKN012
BECMG 0613/0615 19030KT
BECMG 0616/0618 24020KT



MetMap, La meteo Aeronautica in un colpo d'occhio ! - Copyright ORBIFLY Dicembre 2007 - Disclaimer

ORBIFLY MET'MAP TEAM :

Programmazione e sviluppo : Alexandra Zaïnal
Concezione : Baudouin d'Aumeries
Aiuto per la programmazione : Marc-Olivier Méhu
Supporto tecnico e logistico : Manuel Goepfert
Aiuto per la traduzione : Arnaldo La Scala

Contatto : metmap@orbifly.com




FONTI E CREDITI :

   NOAA